Time;durP1;ratioP1;P1;durP2;ratioP2;P2;SDS_P1;SDS_P2;PMS_P1;PMS_P2;Temp;Humidity;BMP_temperature;BMP_pressure;BME280_temperature;BME280_humidity;BME280_pressure;Samples;Min_cycle;Max_cycle;Signal;HPM_P1;HPM_P2
2024/02/04 10:53:20;;;;;;;0.60;0.57;;;;;;;8.73;100.00;99594.53;5166991;27;20523;-87
2024/02/04 10:56:13;;;;;;;0.70;0.70;;;;;;;9.07;100.00;99529.63;5132042;27;40400;-85
2024/02/04 10:59:08;;;;;;;0.40;0.40;;;;;;;9.79;100.00;99565.00;5132070;27;40538;-85
2024/02/04 11:01:39;;;;;;;0.40;0.40;;;;;;;10.37;100.00;99592.16;5111898;27;43338;-87
2024/02/04 11:04:29;;;;;;;0.70;0.70;;;;;;;10.64;100.00;99557.25;5132672;27;41402;-88
2024/02/04 11:06:58;;;;;;;0.70;0.60;;;;;;;10.99;100.00;99561.59;5132531;27;39635;-87
2024/02/04 11:09:27;;;;;;;0.43;0.43;;;;;;;11.30;100.00;99586.44;5149269;27;41761;-88
2024/02/04 11:14:48;;;;;;;0.50;0.50;;;;;;;11.37;100.00;99543.63;5148409;27;43339;-89
2024/02/04 11:17:38;;;;;;;0.50;0.50;;;;;;;11.58;100.00;99557.47;5131800;27;38892;-90
2024/02/04 11:20:27;;;;;;;0.50;0.50;;;;;;;11.75;99.76;99583.06;5130824;27;41834;-87
2024/02/04 11:23:18;;;;;;;0.53;0.50;;;;;;;11.70;99.42;99562.09;5131909;27;41402;-87
2024/02/04 11:25:50;;;;;;;0.47;0.43;;;;;;;11.79;98.21;99571.38;5131512;27;42429;-87
2024/02/04 11:28:20;;;;;;;0.90;0.67;;;;;;;11.77;98.04;99558.19;5147235;27;40598;-87
2024/02/04 11:30:50;;;;;;;0.50;0.50;;;;;;;11.73;96.64;99550.47;5131270;27;42178;-89
2024/02/04 11:33:20;;;;;;;0.60;0.60;;;;;;;11.83;95.88;99552.56;5132075;27;43032;-87
2024/02/04 11:35:48;;;;;;;0.40;0.40;;;;;;;11.97;95.09;99554.44;5148768;27;42022;-87
2024/02/04 11:38:18;;;;;;;0.50;0.50;;;;;;;12.09;94.70;99567.00;5131851;27;38838;-90
2024/02/04 11:40:47;;;;;;;0.50;0.50;;;;;;;12.17;93.40;99572.72;5131103;27;41230;-86
2024/02/04 11:43:15;;;;;;;1.73;0.70;;;;;;;12.04;91.82;99546.94;5131759;27;42006;-88
2024/02/04 11:45:46;;;;;;;1.00;0.83;;;;;;;12.15;92.06;99558.66;5131063;27;41620;-88
2024/02/04 11:48:14;;;;;;;1.93;1.17;;;;;;;12.07;91.59;99538.81;5148737;27;39908;-88
2024/02/04 11:50:42;;;;;;;0.80;0.80;;;;;;;11.76;91.13;99510.50;5131102;27;40813;-89
2024/02/04 11:53:10;;;;;;;0.93;0.70;;;;;;;12.08;91.93;99540.53;5129295;27;43107;-88
2024/02/04 11:55:41;;;;;;;0.77;0.77;;;;;;;12.10;91.66;99543.94;5130798;27;41772;-89
2024/02/04 11:58:12;;;;;;;1.03;0.90;;;;;;;11.98;90.46;99534.03;5130311;27;39733;-86
2024/02/04 12:00:44;;;;;;;0.80;0.80;;;;;;;11.94;90.91;99537.81;5145721;27;42558;-88
2024/02/04 12:03:11;;;;;;;0.90;0.77;;;;;;;11.91;90.31;99543.28;5124048;27;41848;-87
2024/02/04 12:05:39;;;;;;;0.67;0.60;;;;;;;12.02;90.89;99556.78;5117103;27;41288;-87
2024/02/04 12:08:08;;;;;;;0.57;0.57;;;;;;;11.72;90.18;99515.13;5117205;27;39265;-84
2024/02/04 12:10:37;;;;;;;0.60;0.60;;;;;;;11.92;90.15;99550.31;5116918;27;40954;-84
2024/02/04 12:13:06;;;;;;;0.97;0.53;;;;;;;11.61;90.59;99509.56;5116698;27;41734;-88
2024/02/04 12:15:37;;;;;;;0.57;0.57;;;;;;;11.76;91.54;99537.91;5116967;27;42486;-89
2024/02/04 12:18:08;;;;;;;1.23;0.73;;;;;;;11.63;92.18;99518.25;5117206;27;39877;-86
2024/02/04 12:20:36;;;;;;;0.63;0.63;;;;;;;11.55;91.83;99520.50;5117472;27;40719;-87
2024/02/04 12:23:04;;;;;;;0.50;0.50;;;;;;;11.55;92.20;99512.53;5116904;27;41758;-85
2024/02/04 12:25:32;;;;;;;0.83;0.63;;;;;;;11.66;92.20;99518.09;5116931;27;41572;-88
2024/02/04 12:28:02;;;;;;;0.70;0.70;;;;;;;11.88;91.84;99523.94;5099860;27;40014;-88
2024/02/04 12:30:31;;;;;;;0.50;0.50;;;;;;;11.85;91.17;99508.19;5116944;27;41584;-90
2024/02/04 12:33:01;;;;;;;0.70;0.60;;;;;;;11.81;90.37;99509.31;5099708;27;43477;-87
2024/02/04 12:35:29;;;;;;;0.60;0.60;;;;;;;12.16;89.90;99530.31;5117012;27;42903;-86
2024/02/04 12:37:58;;;;;;;0.50;0.50;;;;;;;12.10;89.48;99512.94;5116402;27;39110;-86
2024/02/04 12:40:26;;;;;;;0.67;0.67;;;;;;;12.04;89.38;99501.81;5116435;27;41492;-87
2024/02/04 12:42:55;;;;;;;0.80;0.80;;;;;;;12.15;89.66;99520.63;5116125;27;42814;-88
2024/02/04 12:45:24;;;;;;;1.13;0.50;;;;;;;12.07;89.31;99505.16;5116329;27;41907;-87
2024/02/04 12:47:52;;;;;;;0.50;0.50;;;;;;;11.85;88.66;99473.69;5117075;27;38827;-85
2024/02/04 12:50:24;;;;;;;0.70;0.70;;;;;;;11.99;89.06;99483.50;5124645;27;40987;-85
2024/02/04 12:53:03;;;;;;;0.40;0.40;;;;;;;12.10;89.22;99504.13;5128179;27;41169;-87
2024/02/04 12:55:32;;;;;;;0.60;0.60;;;;;;;12.05;89.33;99493.75;5127934;27;41288;-88
2024/02/04 12:58:05;;;;;;;0.47;0.47;;;;;;;12.20;89.73;99503.50;5129509;27;39073;-85
2024/02/04 13:00:33;;;;;;;0.87;0.50;;;;;;;12.15;89.15;99483.44;5130656;27;42248;-87
2024/02/04 13:03:01;;;;;;;0.70;0.50;;;;;;;12.15;89.06;99486.97;5129861;27;42066;-88
2024/02/04 13:05:31;;;;;;;0.40;0.40;;;;;;;12.18;89.26;99483.28;5118549;27;41952;-87
2024/02/04 13:08:02;;;;;;;0.50;0.50;;;;;;;12.26;88.89;99499.59;5117138;27;38814;-86
2024/02/04 13:10:31;;;;;;;0.80;0.60;;;;;;;12.13;88.95;99485.34;5116663;27;40715;-87
2024/02/04 13:13:06;;;;;;;0.60;0.60;;;;;;;12.22;89.49;99500.75;5133353;27;42121;-86
2024/02/04 13:15:37;;;;;;;0.63;0.53;;;;;;;12.15;89.34;99504.69;5115220;27;42163;-85
2024/02/04 16:16:03;;;;;;;1.03;0.70;;;;;;;9.19;100.00;99452.44;5109800;28;20579;-87
2024/02/04 16:18:33;;;;;;;0.80;0.80;;;;;;;9.66;100.00;99461.56;5092049;28;38823;-84
2024/02/04 16:21:00;;;;;;;0.80;0.80;;;;;;;10.07;100.00;99445.41;5109057;28;42736;-85
2024/02/04 16:23:28;;;;;;;0.93;0.87;;;;;;;10.54;100.00;99461.53;5108717;28;42965;-83
2024/02/04 16:25:57;;;;;;;1.43;0.97;;;;;;;10.72;100.00;99447.31;5091575;28;41042;-85
2024/02/04 16:28:24;;;;;;;0.70;0.70;;;;;;;11.01;100.00;99451.00;5091585;28;39889;-86
